createdAt,value
2023-05-16T00:01:53.321Z,17.90
2023-05-16T00:06:56.273Z,24.02
2023-05-16T00:11:59.967Z,19.58
2023-05-16T00:17:12.148Z,16.35
2023-05-16T00:22:16.408Z,23.30
2023-05-16T00:27:19.334Z,18.90
2023-05-16T00:32:22.431Z,19.08
2023-05-16T00:37:25.509Z,20.98
2023-05-16T00:42:30.352Z,20.83
2023-05-16T00:47:34.105Z,10.98
2023-05-16T00:52:37.201Z,14.40
2023-05-16T00:57:40.311Z,15.93
2023-05-16T01:02:43.863Z,14.00
2023-05-16T01:07:47.426Z,14.65
2023-05-16T01:13:07.628Z,15.38
2023-05-16T01:18:16.520Z,10.60
2023-05-16T01:23:52.331Z,11.65
2023-05-16T01:28:55.852Z,15.10
2023-05-16T01:33:58.746Z,11.27
2023-05-16T01:39:04.435Z,10.35
2023-05-16T01:44:12.296Z,14.43
2023-05-16T01:49:30.174Z,12.40
2023-05-16T01:54:34.124Z,11.23
2023-05-16T01:59:38.032Z,14.02
2023-05-16T02:04:40.997Z,10.98
2023-05-16T02:09:43.837Z,9.10
2023-05-16T02:14:47.778Z,10.60
2023-05-16T02:19:50.876Z,13.20
2023-05-16T02:24:53.790Z,11.48
2023-05-16T02:29:56.595Z,5.00
2023-05-16T02:34:59.537Z,8.98
2023-05-16T02:40:06.183Z,5.10
2023-05-16T02:45:09.755Z,6.75
2023-05-16T02:50:12.831Z,6.47
2023-05-16T02:55:22.264Z,7.80
2023-05-16T03:00:25.834Z,8.57
2023-05-16T03:05:28.986Z,5.03
2023-05-16T03:10:32.039Z,3.67
2023-05-16T03:15:34.825Z,3.03
2023-05-16T03:20:38.961Z,6.97
2023-05-16T03:25:43.589Z,5.55
2023-05-16T03:30:47.429Z,3.40
2023-05-16T03:35:51.229Z,2.70
2023-05-16T03:40:54.046Z,3.45
2023-05-16T03:45:57.302Z,5.18
2023-05-16T03:51:00.201Z,2.22
2023-05-16T03:56:03.154Z,2.17
2023-05-16T04:01:05.940Z,4.30
2023-05-16T04:06:09.255Z,2.88
2023-05-16T04:11:12.613Z,6.70
2023-05-16T04:16:15.518Z,5.80
2023-05-16T04:21:18.786Z,8.85
2023-05-16T04:26:22.969Z,5.45
2023-05-16T04:31:26.888Z,3.45
2023-05-16T04:36:30.597Z,3.40
2023-05-16T04:41:34.209Z,3.95
2023-05-16T04:46:37.236Z,2.97
2023-05-16T04:51:40.067Z,3.75
2023-05-16T04:56:43.011Z,3.85
2023-05-16T05:01:45.864Z,3.35
2023-05-16T05:06:49.269Z,3.08
2023-05-16T05:11:52.837Z,2.28
2023-05-16T05:16:55.878Z,3.38
2023-05-16T05:21:58.888Z,5.35
2023-05-16T05:27:01.828Z,2.00
2023-05-16T05:32:05.674Z,2.05
2023-05-16T05:37:08.783Z,2.08
2023-05-16T05:42:12.509Z,6.32
2023-05-16T05:47:16.014Z,7.00
2023-05-16T05:52:18.953Z,6.70
2023-05-16T05:57:22.036Z,2.05
2023-05-16T06:02:25.153Z,2.95
2023-05-16T06:07:28.125Z,2.80
2023-05-16T06:12:32.452Z,2.78
2023-05-16T06:17:35.424Z,3.72
2023-05-16T06:22:38.360Z,1.83
2023-05-16T06:27:41.225Z,3.45
2023-05-16T06:32:44.188Z,4.28
2023-05-16T06:37:47.056Z,5.88
2023-05-16T06:42:49.998Z,21.55
2023-05-16T06:47:57.213Z,2.20
2023-05-16T06:53:02.469Z,5.80
2023-05-16T06:58:05.356Z,5.30
2023-05-16T07:03:08.480Z,5.10
2023-05-16T07:08:12.730Z,7.15
2023-05-16T07:13:16.211Z,12.07
2023-05-16T07:18:19.176Z,8.70
2023-05-16T07:23:22.746Z,5.53
2023-05-16T07:28:25.710Z,6.65
2023-05-16T07:33:28.649Z,6.47
2023-05-16T07:38:31.904Z,10.30
2023-05-16T07:43:37.389Z,7.43
2023-05-16T07:53:43.023Z,8.23
2023-05-16T07:58:46.357Z,5.00
2023-05-16T08:03:49.472Z,7.95
2023-05-16T08:08:52.561Z,3.75
2023-05-16T08:13:55.463Z,8.43
2023-05-16T08:18:58.652Z,6.78
2023-05-16T08:24:01.552Z,5.22
2023-05-16T08:29:05.366Z,4.68
2023-05-16T08:34:09.829Z,6.20
2023-05-16T08:39:13.866Z,7.50
2023-05-16T08:44:22.375Z,5.78
2023-05-16T08:49:28.672Z,2.72
2023-05-16T08:54:31.675Z,9.90
2023-05-16T08:59:35.509Z,10.68
2023-05-16T09:04:39.390Z,4.75
2023-05-16T09:09:43.169Z,15.15
2023-05-16T09:14:47.837Z,6.82
2023-05-16T09:19:53.427Z,5.13
2023-05-16T09:24:56.437Z,6.47
2023-05-16T09:29:59.949Z,5.28
2023-05-16T09:35:02.828Z,3.30
2023-05-16T09:40:07.683Z,6.72
2023-05-16T09:45:14.648Z,8.35
2023-05-16T09:50:17.900Z,5.30
2023-05-16T09:55:20.820Z,5.45
2023-05-16T10:00:30.544Z,4.40
2023-05-16T10:05:35.073Z,5.15
2023-05-16T10:10:39.171Z,4.07
2023-05-16T10:15:42.561Z,4.03
2023-05-16T10:20:49.730Z,3.67
2023-05-16T10:25:52.871Z,4.03
2023-05-16T10:30:56.477Z,5.50
2023-05-16T10:35:59.682Z,4.75
2023-05-16T10:41:03.057Z,6.38
2023-05-16T10:46:10.994Z,3.03
2023-05-16T10:51:40.350Z,7.78
2023-05-16T10:56:43.887Z,8.05
2023-05-16T11:01:54.245Z,8.32
2023-05-16T11:06:58.874Z,10.35
2023-05-16T11:12:04.039Z,11.98
2023-05-16T11:17:15.596Z,12.95
2023-05-16T11:22:29.690Z,8.10
2023-05-16T11:27:40.196Z,5.68
2023-05-16T11:32:44.975Z,3.22
2023-05-16T11:37:48.275Z,3.43
2023-05-16T11:42:51.914Z,3.17
2023-05-16T11:47:55.250Z,6.75
2023-05-16T11:52:58.380Z,4.25
2023-05-16T11:58:02.469Z,6.13
2023-05-16T12:03:06.612Z,3.47
2023-05-16T12:08:11.406Z,3.63
2023-05-16T12:13:14.734Z,4.25
2023-05-16T12:18:17.896Z,5.35
2023-05-16T12:23:20.890Z,2.88
2023-05-16T12:28:23.995Z,4.30
2023-05-16T12:33:26.930Z,3.38
2023-05-16T12:38:29.949Z,3.30
2023-05-16T12:43:32.981Z,3.42
2023-05-16T12:48:36.169Z,3.03
2023-05-16T12:53:57.555Z,1.80
2023-05-16T12:59:14.917Z,6.20
2023-05-16T13:04:20.812Z,4.00
2023-05-16T13:09:24.228Z,1.88
2023-05-16T13:14:27.502Z,2.17
2023-05-16T13:19:32.163Z,2.20
2023-05-16T13:24:35.206Z,5.97
2023-05-16T13:29:38.175Z,2.60
2023-05-16T13:34:41.142Z,2.95
2023-05-16T13:39:44.057Z,3.25
2023-05-16T13:44:47.572Z,3.58
2023-05-16T13:49:51.263Z,3.75
2023-05-16T13:54:54.262Z,4.70
2023-05-16T14:00:24.989Z,5.57
2023-05-16T14:05:25.185Z,7.07
2023-05-16T14:10:28.902Z,5.78
2023-05-16T14:15:32.556Z,7.88
2023-05-16T14:20:36.440Z,8.90
2023-05-16T14:25:39.805Z,7.55
2023-05-16T14:30:43.020Z,5.57
2023-05-16T14:35:48.235Z,7.57
2023-05-16T14:40:56.667Z,6.78
2023-05-16T14:45:59.673Z,7.70
2023-05-16T14:51:04.991Z,7.75
2023-05-16T15:01:11.222Z,8.50
2023-05-16T15:06:14.167Z,6.35
2023-05-16T15:11:17.252Z,8.25
2023-05-16T15:16:20.297Z,9.00
2023-05-16T15:21:24.117Z,8.77
2023-05-16T15:26:27.177Z,7.10
2023-05-16T15:31:32.455Z,8.60
2023-05-16T15:42:05.387Z,7.90
2023-05-16T15:47:04.219Z,11.70
2023-05-16T15:52:07.230Z,10.95
2023-05-16T15:57:10.216Z,10.77
2023-05-16T16:02:13.420Z,10.43
2023-05-16T16:07:16.610Z,8.90
2023-05-16T16:12:19.707Z,10.23
2023-05-16T16:17:22.734Z,10.70
2023-05-16T16:22:25.652Z,11.93
2023-05-16T16:27:28.588Z,11.98
2023-05-16T16:32:31.635Z,10.45
2023-05-16T16:37:35.201Z,11.48
2023-05-16T16:42:39.085Z,9.25
2023-05-16T16:47:42.289Z,10.85
2023-05-16T16:52:45.222Z,8.85
2023-05-16T16:57:48.153Z,9.98
2023-05-16T17:02:51.211Z,9.32
2023-05-16T17:07:54.332Z,9.68
2023-05-16T17:13:03.256Z,15.48
2023-05-16T17:18:09.219Z,13.65
2023-05-16T17:23:12.277Z,10.93
2023-05-16T17:28:15.404Z,9.45
2023-05-16T17:33:19.737Z,10.10
2023-05-16T17:38:22.627Z,8.80
2023-05-16T17:43:26.082Z,8.63
2023-05-16T17:48:29.110Z,8.48
2023-05-16T17:53:32.020Z,8.15
2023-05-16T17:58:35.069Z,9.68
2023-05-16T18:03:38.192Z,10.40
2023-05-16T18:08:41.170Z,8.98
2023-05-16T18:13:44.561Z,9.63
2023-05-16T18:18:47.786Z,8.23
2023-05-16T18:23:50.707Z,10.40
2023-05-16T18:28:53.657Z,8.05
2023-05-16T18:33:56.630Z,9.07
2023-05-16T18:38:59.576Z,10.00
2023-05-16T18:44:02.578Z,8.32
2023-05-16T18:49:05.867Z,7.60
2023-05-16T18:54:08.825Z,10.63
2023-05-16T18:59:11.695Z,12.40
2023-05-16T19:04:14.715Z,9.05
2023-05-16T19:09:17.630Z,8.98
2023-05-16T19:14:21.000Z,9.18
2023-05-16T19:19:24.088Z,8.32
2023-05-16T19:24:27.334Z,9.07
2023-05-16T19:29:30.415Z,8.35
2023-05-16T19:34:33.619Z,7.13
2023-05-16T19:39:36.603Z,8.20
2023-05-16T19:44:39.533Z,8.13
2023-05-16T19:49:42.440Z,6.25
2023-05-16T19:54:45.479Z,6.22
2023-05-16T19:59:48.368Z,6.35
2023-05-16T20:04:51.424Z,4.70
2023-05-16T20:09:54.336Z,4.90
2023-05-16T20:14:57.358Z,8.00
2023-05-16T20:20:00.606Z,6.95
2023-05-16T20:25:03.874Z,6.88
2023-05-16T20:30:07.993Z,6.05
2023-05-16T20:35:11.706Z,5.32
2023-05-16T20:40:14.578Z,7.28
2023-05-16T20:45:17.475Z,6.32
2023-05-16T20:50:20.426Z,5.88
2023-05-16T20:55:23.858Z,4.90
2023-05-16T21:00:27.012Z,5.88
2023-05-16T21:05:29.995Z,5.72
2023-05-16T21:10:33.047Z,3.47
2023-05-16T21:15:36.027Z,6.55
2023-05-16T21:20:38.966Z,6.38
2023-05-16T21:25:41.913Z,3.75
2023-05-16T21:30:44.809Z,4.57
2023-05-16T21:35:47.855Z,5.43
2023-05-16T21:40:50.772Z,4.22
2023-05-16T21:45:53.886Z,4.55
2023-05-16T21:50:56.794Z,4.18
2023-05-16T21:56:00.215Z,4.97
2023-05-16T22:01:03.160Z,4.28
2023-05-16T22:06:06.604Z,1.85
2023-05-16T22:11:10.699Z,5.60
2023-05-16T22:16:13.655Z,4.53
2023-05-16T22:21:20.558Z,6.07
2023-05-16T22:26:23.531Z,3.75
2023-05-16T22:31:26.723Z,3.25
2023-05-16T22:36:29.814Z,3.92
2023-05-16T22:41:32.749Z,3.97
2023-05-16T22:46:35.764Z,4.40
2023-05-16T22:51:40.789Z,3.20
2023-05-16T22:56:44.030Z,2.13
2023-05-16T23:01:47.017Z,2.45
2023-05-16T23:06:49.977Z,1.65
2023-05-16T23:11:52.958Z,2.47
2023-05-16T23:16:56.007Z,2.85
2023-05-16T23:21:58.847Z,5.45
2023-05-16T23:27:01.754Z,6.63
2023-05-16T23:32:05.153Z,2.13
2023-05-16T23:37:08.081Z,2.38
2023-05-16T23:42:11.041Z,4.45
2023-05-16T23:47:13.962Z,2.17
2023-05-16T23:52:16.845Z,2.75
2023-05-16T23:57:19.745Z,2.50
